sensor_id;sensor_type;location;lat;lon;timestamp;P1;durP1;ratioP1;P2;durP2;ratioP2
31694;SDS011;18289;51.330;4.946;2022-10-16T00:01:16;3.72;;;3.05;;
31694;SDS011;18289;51.330;4.946;2022-10-16T00:03:46;5.47;;;2.60;;
31694;SDS011;18289;51.330;4.946;2022-10-16T00:06:17;3.90;;;2.40;;
31694;SDS011;18289;51.330;4.946;2022-10-16T00:08:44;4.88;;;2.75;;
31694;SDS011;18289;51.330;4.946;2022-10-16T00:11:11;3.85;;;2.30;;
31694;SDS011;18289;51.330;4.946;2022-10-16T00:14:02;3.80;;;2.50;;
31694;SDS011;18289;51.330;4.946;2022-10-16T00:16:30;5.80;;;2.58;;
31694;SDS011;18289;51.330;4.946;2022-10-16T00:18:56;2.90;;;2.10;;
31694;SDS011;18289;51.330;4.946;2022-10-16T00:21:23;3.00;;;2.30;;
31694;SDS011;18289;51.330;4.946;2022-10-16T00:23:51;2.45;;;2.25;;
31694;SDS011;18289;51.330;4.946;2022-10-16T00:26:19;4.45;;;2.50;;
31694;SDS011;18289;51.330;4.946;2022-10-16T00:28:51;2.20;;;2.10;;
31694;SDS011;18289;51.330;4.946;2022-10-16T00:31:18;2.53;;;2.33;;
31694;SDS011;18289;51.330;4.946;2022-10-16T00:33:48;2.65;;;1.95;;
31694;SDS011;18289;51.330;4.946;2022-10-16T00:36:19;3.08;;;2.35;;
31694;SDS011;18289;51.330;4.946;2022-10-16T00:38:46;3.80;;;2.72;;
31694;SDS011;18289;51.330;4.946;2022-10-16T00:41:15;5.00;;;2.58;;
31694;SDS011;18289;51.330;4.946;2022-10-16T00:43:48;5.93;;;2.00;;
31694;SDS011;18289;51.330;4.946;2022-10-16T00:46:29;3.92;;;2.47;;
31694;SDS011;18289;51.330;4.946;2022-10-16T00:49:05;4.43;;;2.65;;
31694;SDS011;18289;51.330;4.946;2022-10-16T00:51:38;6.00;;;2.40;;
31694;SDS011;18289;51.330;4.946;2022-10-16T00:54:09;2.55;;;2.15;;
31694;SDS011;18289;51.330;4.946;2022-10-16T00:56:40;4.70;;;2.25;;
31694;SDS011;18289;51.330;4.946;2022-10-16T00:59:10;3.92;;;2.15;;
31694;SDS011;18289;51.330;4.946;2022-10-16T01:01:41;3.88;;;2.42;;
31694;SDS011;18289;51.330;4.946;2022-10-16T01:04:07;3.38;;;2.45;;
31694;SDS011;18289;51.330;4.946;2022-10-16T01:12:45;3.20;;;2.00;;
31694;SDS011;18289;51.330;4.946;2022-10-16T01:21:01;2.15;;;1.98;;
31694;SDS011;18289;51.330;4.946;2022-10-16T01:26:13;2.00;;;1.80;;
31694;SDS011;18289;51.330;4.946;2022-10-16T01:28:52;4.15;;;2.22;;
31694;SDS011;18289;51.330;4.946;2022-10-16T01:31:22;2.45;;;2.05;;
31694;SDS011;18289;51.330;4.946;2022-10-16T01:33:59;2.63;;;1.80;;
31694;SDS011;18289;51.330;4.946;2022-10-16T01:36:31;1.77;;;1.67;;
31694;SDS011;18289;51.330;4.946;2022-10-16T01:39:02;2.30;;;2.10;;
31694;SDS011;18289;51.330;4.946;2022-10-16T01:41:33;2.38;;;1.80;;
31694;SDS011;18289;51.330;4.946;2022-10-16T01:44:07;2.15;;;1.90;;
31694;SDS011;18289;51.330;4.946;2022-10-16T01:46:40;3.25;;;2.00;;
31694;SDS011;18289;51.330;4.946;2022-10-16T01:49:08;2.53;;;1.83;;
31694;SDS011;18289;51.330;4.946;2022-10-16T01:51:36;3.60;;;1.92;;
31694;SDS011;18289;51.330;4.946;2022-10-16T01:54:03;2.35;;;2.15;;
31694;SDS011;18289;51.330;4.946;2022-10-16T01:56:32;2.65;;;2.08;;
31694;SDS011;18289;51.330;4.946;2022-10-16T01:59:05;2.45;;;1.98;;
31694;SDS011;18289;51.330;4.946;2022-10-16T02:01:35;2.83;;;1.95;;
31694;SDS011;18289;51.330;4.946;2022-10-16T02:04:08;3.58;;;1.70;;
31694;SDS011;18289;51.330;4.946;2022-10-16T02:06:38;2.97;;;2.00;;
31694;SDS011;18289;51.330;4.946;2022-10-16T02:09:04;3.80;;;1.90;;
31694;SDS011;18289;51.330;4.946;2022-10-16T02:11:30;4.88;;;1.73;;
31694;SDS011;18289;51.330;4.946;2022-10-16T02:14:00;2.30;;;1.63;;
31694;SDS011;18289;51.330;4.946;2022-10-16T02:16:41;2.88;;;2.03;;
31694;SDS011;18289;51.330;4.946;2022-10-16T02:19:09;3.33;;;2.00;;
31694;SDS011;18289;51.330;4.946;2022-10-16T02:21:56;2.53;;;2.00;;
31694;SDS011;18289;51.330;4.946;2022-10-16T02:29:30;4.65;;;2.17;;
31694;SDS011;18289;51.330;4.946;2022-10-16T02:32:01;2.10;;;1.90;;
31694;SDS011;18289;51.330;4.946;2022-10-16T02:34:29;3.35;;;1.83;;
31694;SDS011;18289;51.330;4.946;2022-10-16T02:36:58;1.80;;;1.63;;
31694;SDS011;18289;51.330;4.946;2022-10-16T02:39:24;8.80;;;1.98;;
31694;SDS011;18289;51.330;4.946;2022-10-16T02:41:53;2.40;;;1.92;;
31694;SDS011;18289;51.330;4.946;2022-10-16T02:44:18;5.38;;;2.00;;
31694;SDS011;18289;51.330;4.946;2022-10-16T02:46:44;2.45;;;1.88;;
31694;SDS011;18289;51.330;4.946;2022-10-16T02:49:10;2.38;;;1.80;;
31694;SDS011;18289;51.330;4.946;2022-10-16T02:51:36;4.22;;;1.60;;
31694;SDS011;18289;51.330;4.946;2022-10-16T02:54:02;8.00;;;1.95;;
31694;SDS011;18289;51.330;4.946;2022-10-16T02:56:28;2.50;;;1.85;;
31694;SDS011;18289;51.330;4.946;2022-10-16T02:58:55;2.20;;;2.00;;
31694;SDS011;18289;51.330;4.946;2022-10-16T03:01:20;1.70;;;1.60;;
31694;SDS011;18289;51.330;4.946;2022-10-16T03:03:46;3.40;;;2.67;;
31694;SDS011;18289;51.330;4.946;2022-10-16T03:06:12;4.30;;;1.67;;
31694;SDS011;18289;51.330;4.946;2022-10-16T03:08:37;7.15;;;2.60;;
31694;SDS011;18289;51.330;4.946;2022-10-16T03:11:03;3.13;;;2.40;;
31694;SDS011;18289;51.330;4.946;2022-10-16T03:13:29;2.53;;;2.03;;
31694;SDS011;18289;51.330;4.946;2022-10-16T03:15:54;3.60;;;1.80;;
31694;SDS011;18289;51.330;4.946;2022-10-16T03:18:20;3.72;;;1.80;;
31694;SDS011;18289;51.330;4.946;2022-10-16T03:20:46;2.20;;;2.00;;
31694;SDS011;18289;51.330;4.946;2022-10-16T03:23:11;1.92;;;1.83;;
31694;SDS011;18289;51.330;4.946;2022-10-16T03:25:37;2.33;;;1.70;;
31694;SDS011;18289;51.330;4.946;2022-10-16T03:28:02;2.83;;;1.63;;
31694;SDS011;18289;51.330;4.946;2022-10-16T03:30:28;4.40;;;1.77;;
31694;SDS011;18289;51.330;4.946;2022-10-16T03:32:54;3.50;;;2.20;;
31694;SDS011;18289;51.330;4.946;2022-10-16T03:35:23;2.10;;;1.90;;
31694;SDS011;18289;51.330;4.946;2022-10-16T03:40:15;2.70;;;1.75;;
31694;SDS011;18289;51.330;4.946;2022-10-16T03:42:42;2.70;;;2.03;;
31694;SDS011;18289;51.330;4.946;2022-10-16T03:45:08;3.95;;;1.88;;
31694;SDS011;18289;51.330;4.946;2022-10-16T03:47:34;3.88;;;1.85;;
31694;SDS011;18289;51.330;4.946;2022-10-16T03:50:00;2.58;;;2.40;;
31694;SDS011;18289;51.330;4.946;2022-10-16T03:52:26;2.40;;;2.20;;
31694;SDS011;18289;51.330;4.946;2022-10-16T03:54:52;2.30;;;1.92;;
31694;SDS011;18289;51.330;4.946;2022-10-16T03:57:18;5.85;;;2.22;;
31694;SDS011;18289;51.330;4.946;2022-10-16T03:59:43;3.28;;;2.35;;
31694;SDS011;18289;51.330;4.946;2022-10-16T04:02:09;3.72;;;1.75;;
31694;SDS011;18289;51.330;4.946;2022-10-16T04:04:38;3.58;;;2.00;;
31694;SDS011;18289;51.330;4.946;2022-10-16T04:07:04;2.47;;;1.90;;
31694;SDS011;18289;51.330;4.946;2022-10-16T04:09:30;4.50;;;2.05;;
31694;SDS011;18289;51.330;4.946;2022-10-16T04:11:55;2.58;;;1.90;;
31694;SDS011;18289;51.330;4.946;2022-10-16T04:14:21;5.47;;;2.00;;
31694;SDS011;18289;51.330;4.946;2022-10-16T04:16:47;2.63;;;1.77;;
31694;SDS011;18289;51.330;4.946;2022-10-16T04:19:12;4.00;;;1.83;;
31694;SDS011;18289;51.330;4.946;2022-10-16T04:21:38;3.38;;;1.98;;
31694;SDS011;18289;51.330;4.946;2022-10-16T04:24:04;3.45;;;1.88;;
31694;SDS011;18289;51.330;4.946;2022-10-16T04:26:29;2.20;;;2.00;;
31694;SDS011;18289;51.330;4.946;2022-10-16T04:28:56;3.25;;;1.98;;
31694;SDS011;18289;51.330;4.946;2022-10-16T04:31:22;2.30;;;1.88;;
31694;SDS011;18289;51.330;4.946;2022-10-16T04:33:48;3.30;;;2.03;;
31694;SDS011;18289;51.330;4.946;2022-10-16T04:36:13;2.33;;;2.08;;
31694;SDS011;18289;51.330;4.946;2022-10-16T04:38:39;2.28;;;1.90;;
31694;SDS011;18289;51.330;4.946;2022-10-16T04:41:05;4.78;;;1.90;;
31694;SDS011;18289;51.330;4.946;2022-10-16T04:43:32;3.53;;;1.80;;
31694;SDS011;18289;51.330;4.946;2022-10-16T04:45:58;2.92;;;2.08;;
31694;SDS011;18289;51.330;4.946;2022-10-16T04:48:24;3.80;;;2.00;;
31694;SDS011;18289;51.330;4.946;2022-10-16T04:50:50;6.05;;;2.38;;
31694;SDS011;18289;51.330;4.946;2022-10-16T04:53:15;3.72;;;1.98;;
31694;SDS011;18289;51.330;4.946;2022-10-16T04:55:41;3.13;;;1.92;;
31694;SDS011;18289;51.330;4.946;2022-10-16T04:58:07;1.73;;;1.63;;
31694;SDS011;18289;51.330;4.946;2022-10-16T05:00:33;4.07;;;2.00;;
31694;SDS011;18289;51.330;4.946;2022-10-16T05:03:00;2.30;;;1.85;;
31694;SDS011;18289;51.330;4.946;2022-10-16T05:05:26;2.72;;;2.00;;
31694;SDS011;18289;51.330;4.946;2022-10-16T05:07:53;2.20;;;1.95;;
31694;SDS011;18289;51.330;4.946;2022-10-16T05:10:19;4.32;;;2.53;;
31694;SDS011;18289;51.330;4.946;2022-10-16T05:12:45;2.40;;;1.90;;
31694;SDS011;18289;51.330;4.946;2022-10-16T05:15:11;2.22;;;1.90;;
31694;SDS011;18289;51.330;4.946;2022-10-16T05:17:37;2.10;;;1.90;;
31694;SDS011;18289;51.330;4.946;2022-10-16T05:20:03;6.25;;;2.13;;
31694;SDS011;18289;51.330;4.946;2022-10-16T05:22:29;3.28;;;2.00;;
31694;SDS011;18289;51.330;4.946;2022-10-16T05:24:55;3.58;;;2.13;;
31694;SDS011;18289;51.330;4.946;2022-10-16T05:27:20;3.40;;;1.90;;
31694;SDS011;18289;51.330;4.946;2022-10-16T05:29:48;3.78;;;2.15;;
31694;SDS011;18289;51.330;4.946;2022-10-16T05:32:14;3.33;;;2.28;;
31694;SDS011;18289;51.330;4.946;2022-10-16T05:34:41;6.00;;;2.60;;
31694;SDS011;18289;51.330;4.946;2022-10-16T05:37:07;2.65;;;2.10;;
31694;SDS011;18289;51.330;4.946;2022-10-16T05:39:33;2.45;;;2.10;;
31694;SDS011;18289;51.330;4.946;2022-10-16T05:41:58;3.90;;;2.17;;
31694;SDS011;18289;51.330;4.946;2022-10-16T05:44:24;3.78;;;2.35;;
31694;SDS011;18289;51.330;4.946;2022-10-16T05:46:50;2.53;;;2.33;;
31694;SDS011;18289;51.330;4.946;2022-10-16T05:49:15;4.70;;;2.20;;
31694;SDS011;18289;51.330;4.946;2022-10-16T05:51:41;5.25;;;2.30;;
31694;SDS011;18289;51.330;4.946;2022-10-16T05:54:07;3.72;;;2.10;;
31694;SDS011;18289;51.330;4.946;2022-10-16T05:56:33;3.60;;;2.45;;
31694;SDS011;18289;51.330;4.946;2022-10-16T05:58:59;5.00;;;2.65;;
31694;SDS011;18289;51.330;4.946;2022-10-16T06:01:24;3.15;;;2.30;;
31694;SDS011;18289;51.330;4.946;2022-10-16T06:03:50;2.88;;;2.17;;
31694;SDS011;18289;51.330;4.946;2022-10-16T06:06:18;4.50;;;2.20;;
31694;SDS011;18289;51.330;4.946;2022-10-16T06:08:46;3.17;;;2.20;;
31694;SDS011;18289;51.330;4.946;2022-10-16T06:11:16;5.68;;;2.50;;
31694;SDS011;18289;51.330;4.946;2022-10-16T06:13:44;3.00;;;2.30;;
31694;SDS011;18289;51.330;4.946;2022-10-16T06:16:11;3.58;;;2.60;;
31694;SDS011;18289;51.330;4.946;2022-10-16T06:18:37;4.15;;;2.75;;
31694;SDS011;18289;51.330;4.946;2022-10-16T06:21:07;2.97;;;2.53;;
31694;SDS011;18289;51.330;4.946;2022-10-16T06:23:41;4.57;;;2.30;;
31694;SDS011;18289;51.330;4.946;2022-10-16T06:26:10;4.97;;;2.40;;
31694;SDS011;18289;51.330;4.946;2022-10-16T06:28:38;3.90;;;2.20;;
31694;SDS011;18289;51.330;4.946;2022-10-16T06:31:05;5.28;;;3.25;;
31694;SDS011;18289;51.330;4.946;2022-10-16T06:33:32;4.07;;;2.70;;
31694;SDS011;18289;51.330;4.946;2022-10-16T06:36:08;4.20;;;2.42;;
31694;SDS011;18289;51.330;4.946;2022-10-16T06:38:36;4.75;;;2.53;;
31694;SDS011;18289;51.330;4.946;2022-10-16T06:41:02;3.13;;;2.75;;
31694;SDS011;18289;51.330;4.946;2022-10-16T06:43:29;4.45;;;2.85;;
31694;SDS011;18289;51.330;4.946;2022-10-16T06:46:00;8.05;;;2.80;;
31694;SDS011;18289;51.330;4.946;2022-10-16T06:48:27;5.20;;;2.50;;
31694;SDS011;18289;51.330;4.946;2022-10-16T06:51:04;3.97;;;2.50;;
31694;SDS011;18289;51.330;4.946;2022-10-16T06:53:32;5.45;;;2.80;;
31694;SDS011;18289;51.330;4.946;2022-10-16T06:56:06;2.70;;;2.50;;
31694;SDS011;18289;51.330;4.946;2022-10-16T06:58:33;4.80;;;3.30;;
31694;SDS011;18289;51.330;4.946;2022-10-16T07:00:59;3.13;;;2.70;;
31694;SDS011;18289;51.330;4.946;2022-10-16T07:03:25;3.08;;;2.78;;
31694;SDS011;18289;51.330;4.946;2022-10-16T07:05:50;4.32;;;3.17;;
31694;SDS011;18289;51.330;4.946;2022-10-16T07:08:16;5.90;;;3.30;;
31694;SDS011;18289;51.330;4.946;2022-10-16T07:10:42;2.72;;;2.40;;
31694;SDS011;18289;51.330;4.946;2022-10-16T07:13:07;4.63;;;2.40;;
31694;SDS011;18289;51.330;4.946;2022-10-16T07:15:33;5.00;;;2.75;;
31694;SDS011;18289;51.330;4.946;2022-10-16T07:17:59;4.78;;;2.83;;
31694;SDS011;18289;51.330;4.946;2022-10-16T07:20:24;4.95;;;2.60;;
31694;SDS011;18289;51.330;4.946;2022-10-16T07:22:50;3.38;;;2.92;;
31694;SDS011;18289;51.330;4.946;2022-10-16T07:25:17;5.68;;;2.75;;
31694;SDS011;18289;51.330;4.946;2022-10-16T07:27:43;2.90;;;2.63;;
31694;SDS011;18289;51.330;4.946;2022-10-16T07:30:09;7.07;;;3.10;;
31694;SDS011;18289;51.330;4.946;2022-10-16T07:32:35;3.65;;;2.40;;
31694;SDS011;18289;51.330;4.946;2022-10-16T07:35:00;4.75;;;2.50;;
31694;SDS011;18289;51.330;4.946;2022-10-16T07:37:26;2.95;;;2.33;;
31694;SDS011;18289;51.330;4.946;2022-10-16T07:39:52;3.65;;;2.70;;
31694;SDS011;18289;51.330;4.946;2022-10-16T07:42:18;4.80;;;2.60;;
31694;SDS011;18289;51.330;4.946;2022-10-16T07:44:45;3.60;;;2.83;;
31694;SDS011;18289;51.330;4.946;2022-10-16T07:47:10;4.72;;;2.33;;
31694;SDS011;18289;51.330;4.946;2022-10-16T07:49:36;4.57;;;2.80;;
31694;SDS011;18289;51.330;4.946;2022-10-16T07:52:02;4.10;;;2.35;;
31694;SDS011;18289;51.330;4.946;2022-10-16T07:54:28;6.05;;;2.78;;
31694;SDS011;18289;51.330;4.946;2022-10-16T07:56:53;4.85;;;2.50;;
31694;SDS011;18289;51.330;4.946;2022-10-16T07:59:19;12.32;;;3.78;;
31694;SDS011;18289;51.330;4.946;2022-10-16T08:01:45;4.88;;;2.63;;
31694;SDS011;18289;51.330;4.946;2022-10-16T08:04:10;3.80;;;2.50;;
31694;SDS011;18289;51.330;4.946;2022-10-16T08:06:37;2.92;;;2.00;;
31694;SDS011;18289;51.330;4.946;2022-10-16T08:09:04;10.27;;;2.85;;
31694;SDS011;18289;51.330;4.946;2022-10-16T08:11:31;6.70;;;3.10;;
31694;SDS011;18289;51.330;4.946;2022-10-16T08:13:57;3.08;;;2.20;;
31694;SDS011;18289;51.330;4.946;2022-10-16T08:16:23;3.63;;;2.10;;
31694;SDS011;18289;51.330;4.946;2022-10-16T08:18:48;4.40;;;1.95;;
31694;SDS011;18289;51.330;4.946;2022-10-16T08:21:17;3.58;;;2.10;;
31694;SDS011;18289;51.330;4.946;2022-10-16T08:23:44;4.18;;;2.17;;
31694;SDS011;18289;51.330;4.946;2022-10-16T08:26:11;4.85;;;2.17;;
31694;SDS011;18289;51.330;4.946;2022-10-16T08:28:37;4.85;;;2.42;;
31694;SDS011;18289;51.330;4.946;2022-10-16T08:31:07;4.68;;;2.30;;
31694;SDS011;18289;51.330;4.946;2022-10-16T08:33:34;4.00;;;2.03;;
31694;SDS011;18289;51.330;4.946;2022-10-16T08:36:01;4.25;;;2.17;;
31694;SDS011;18289;51.330;4.946;2022-10-16T08:38:27;4.05;;;1.95;;
31694;SDS011;18289;51.330;4.946;2022-10-16T08:40:54;4.80;;;2.00;;
31694;SDS011;18289;51.330;4.946;2022-10-16T08:43:35;4.13;;;1.80;;
31694;SDS011;18289;51.330;4.946;2022-10-16T08:49:35;4.35;;;1.88;;
31694;SDS011;18289;51.330;4.946;2022-10-16T08:52:02;6.07;;;2.15;;
31694;SDS011;18289;51.330;4.946;2022-10-16T08:57:21;3.00;;;1.77;;
31694;SDS011;18289;51.330;4.946;2022-10-16T08:59:49;3.80;;;1.90;;
31694;SDS011;18289;51.330;4.946;2022-10-16T09:02:37;3.28;;;1.70;;
31694;SDS011;18289;51.330;4.946;2022-10-16T09:05:19;5.07;;;2.05;;
31694;SDS011;18289;51.330;4.946;2022-10-16T09:10:49;4.30;;;2.17;;
31694;SDS011;18289;51.330;4.946;2022-10-16T09:13:23;6.03;;;1.90;;
31694;SDS011;18289;51.330;4.946;2022-10-16T09:23:48;4.75;;;2.05;;
31694;SDS011;18289;51.330;4.946;2022-10-16T09:26:15;3.42;;;1.80;;
31694;SDS011;18289;51.330;4.946;2022-10-16T09:28:43;3.88;;;1.75;;
31694;SDS011;18289;51.330;4.946;2022-10-16T09:31:15;5.70;;;1.88;;
31694;SDS011;18289;51.330;4.946;2022-10-16T09:33:57;3.70;;;2.05;;
31694;SDS011;18289;51.330;4.946;2022-10-16T09:36:25;4.95;;;2.20;;
31694;SDS011;18289;51.330;4.946;2022-10-16T09:39:06;4.53;;;1.75;;
31694;SDS011;18289;51.330;4.946;2022-10-16T09:41:34;3.90;;;1.70;;
31694;SDS011;18289;51.330;4.946;2022-10-16T09:44:24;5.90;;;2.03;;
31694;SDS011;18289;51.330;4.946;2022-10-16T09:47:05;5.78;;;1.92;;
31694;SDS011;18289;51.330;4.946;2022-10-16T09:49:42;3.53;;;1.60;;
31694;SDS011;18289;51.330;4.946;2022-10-16T09:52:24;4.05;;;1.80;;
31694;SDS011;18289;51.330;4.946;2022-10-16T09:55:12;6.65;;;1.80;;
31694;SDS011;18289;51.330;4.946;2022-10-16T09:57:52;7.93;;;2.08;;
31694;SDS011;18289;51.330;4.946;2022-10-16T10:00:19;4.97;;;1.92;;
31694;SDS011;18289;51.330;4.946;2022-10-16T10:02:46;6.10;;;1.98;;
31694;SDS011;18289;51.330;4.946;2022-10-16T10:05:22;3.25;;;1.70;;
31694;SDS011;18289;51.330;4.946;2022-10-16T10:10:26;5.88;;;2.15;;
31694;SDS011;18289;51.330;4.946;2022-10-16T10:12:54;11.13;;;2.00;;
31694;SDS011;18289;51.330;4.946;2022-10-16T10:15:20;4.80;;;1.77;;
31694;SDS011;18289;51.330;4.946;2022-10-16T10:17:50;9.35;;;2.70;;
31694;SDS011;18289;51.330;4.946;2022-10-16T10:20:27;5.57;;;2.03;;
31694;SDS011;18289;51.330;4.946;2022-10-16T10:22:59;8.82;;;2.17;;
31694;SDS011;18289;51.330;4.946;2022-10-16T10:25:41;7.03;;;2.50;;
31694;SDS011;18289;51.330;4.946;2022-10-16T10:31:01;4.90;;;1.90;;
31694;SDS011;18289;51.330;4.946;2022-10-16T10:38:41;6.75;;;2.60;;
31694;SDS011;18289;51.330;4.946;2022-10-16T10:46:42;7.50;;;2.65;;
31694;SDS011;18289;51.330;4.946;2022-10-16T10:49:19;6.93;;;2.47;;
31694;SDS011;18289;51.330;4.946;2022-10-16T10:59:51;6.35;;;1.75;;
31694;SDS011;18289;51.330;4.946;2022-10-16T11:02:46;6.00;;;2.58;;
31694;SDS011;18289;51.330;4.946;2022-10-16T11:11:09;5.03;;;1.92;;
31694;SDS011;18289;51.330;4.946;2022-10-16T11:18:58;7.53;;;2.50;;
31694;SDS011;18289;51.330;4.946;2022-10-16T11:21:48;3.95;;;2.35;;
31694;SDS011;18289;51.330;4.946;2022-10-16T11:24:36;6.35;;;2.38;;
31694;SDS011;18289;51.330;4.946;2022-10-16T11:27:12;4.93;;;2.65;;
31694;SDS011;18289;51.330;4.946;2022-10-16T11:29:50;5.63;;;2.70;;
31694;SDS011;18289;51.330;4.946;2022-10-16T11:32:31;5.90;;;2.88;;
31694;SDS011;18289;51.330;4.946;2022-10-16T11:35:02;6.82;;;3.13;;
31694;SDS011;18289;51.330;4.946;2022-10-16T11:37:37;5.72;;;2.63;;
31694;SDS011;18289;51.330;4.946;2022-10-16T11:40:24;5.15;;;3.00;;
31694;SDS011;18289;51.330;4.946;2022-10-16T11:43:04;4.22;;;2.83;;
31694;SDS011;18289;51.330;4.946;2022-10-16T11:45:51;5.45;;;2.88;;
31694;SDS011;18289;51.330;4.946;2022-10-16T11:51:11;5.25;;;2.80;;
31694;SDS011;18289;51.330;4.946;2022-10-16T11:56:36;4.05;;;2.90;;
31694;SDS011;18289;51.330;4.946;2022-10-16T11:59:14;4.45;;;2.78;;
31694;SDS011;18289;51.330;4.946;2022-10-16T12:01:57;10.52;;;3.45;;
31694;SDS011;18289;51.330;4.946;2022-10-16T12:07:19;6.32;;;3.40;;
31694;SDS011;18289;51.330;4.946;2022-10-16T12:09:52;3.60;;;2.92;;
31694;SDS011;18289;51.330;4.946;2022-10-16T12:12:25;5.07;;;2.92;;
31694;SDS011;18289;51.330;4.946;2022-10-16T12:15:00;5.50;;;2.80;;
31694;SDS011;18289;51.330;4.946;2022-10-16T12:17:36;4.20;;;2.50;;
31694;SDS011;18289;51.330;4.946;2022-10-16T12:22:41;5.35;;;2.50;;
31694;SDS011;18289;51.330;4.946;2022-10-16T12:27:56;4.47;;;2.70;;
31694;SDS011;18289;51.330;4.946;2022-10-16T12:30:34;4.60;;;2.90;;
31694;SDS011;18289;51.330;4.946;2022-10-16T12:33:02;4.55;;;2.80;;
31694;SDS011;18289;51.330;4.946;2022-10-16T12:35:31;4.72;;;2.80;;
31694;SDS011;18289;51.330;4.946;2022-10-16T12:38:14;4.78;;;2.72;;
31694;SDS011;18289;51.330;4.946;2022-10-16T12:40:46;3.78;;;2.97;;
31694;SDS011;18289;51.330;4.946;2022-10-16T12:46:39;4.68;;;3.13;;
31694;SDS011;18289;51.330;4.946;2022-10-16T12:51:41;3.53;;;3.22;;
31694;SDS011;18289;51.330;4.946;2022-10-16T12:54:18;4.38;;;2.97;;
31694;SDS011;18289;51.330;4.946;2022-10-16T12:56:57;4.07;;;3.22;;
31694;SDS011;18289;51.330;4.946;2022-10-16T13:11:01;3.97;;;2.30;;
31694;SDS011;18289;51.330;4.946;2022-10-16T13:30:17;5.63;;;2.00;;
31694;SDS011;18289;51.330;4.946;2022-10-16T13:32:49;5.47;;;2.00;;
31694;SDS011;18289;51.330;4.946;2022-10-16T13:35:21;4.55;;;1.95;;
31694;SDS011;18289;51.330;4.946;2022-10-16T13:37:49;2.88;;;1.90;;
31694;SDS011;18289;51.330;4.946;2022-10-16T13:40:22;2.67;;;1.60;;
31694;SDS011;18289;51.330;4.946;2022-10-16T13:42:50;6.10;;;1.70;;
31694;SDS011;18289;51.330;4.946;2022-10-16T13:45:21;3.13;;;1.83;;
31694;SDS011;18289;51.330;4.946;2022-10-16T13:48:02;4.20;;;1.80;;
31694;SDS011;18289;51.330;4.946;2022-10-16T13:50:28;4.50;;;1.80;;
31694;SDS011;18289;51.330;4.946;2022-10-16T13:53:07;3.97;;;2.20;;
31694;SDS011;18289;51.330;4.946;2022-10-16T13:55:38;2.25;;;1.77;;
31694;SDS011;18289;51.330;4.946;2022-10-16T13:58:07;3.88;;;1.70;;
31694;SDS011;18289;51.330;4.946;2022-10-16T14:00:36;4.53;;;1.95;;
31694;SDS011;18289;51.330;4.946;2022-10-16T14:03:03;4.57;;;2.15;;
31694;SDS011;18289;51.330;4.946;2022-10-16T14:05:30;2.22;;;1.67;;
31694;SDS011;18289;51.330;4.946;2022-10-16T14:07:57;6.63;;;2.05;;
31694;SDS011;18289;51.330;4.946;2022-10-16T14:10:30;6.45;;;2.17;;
31694;SDS011;18289;51.330;4.946;2022-10-16T14:13:06;5.60;;;2.20;;
31694;SDS011;18289;51.330;4.946;2022-10-16T14:15:34;5.45;;;1.60;;
31694;SDS011;18289;51.330;4.946;2022-10-16T14:18:01;2.10;;;1.63;;
31694;SDS011;18289;51.330;4.946;2022-10-16T14:20:29;4.30;;;1.60;;
31694;SDS011;18289;51.330;4.946;2022-10-16T14:22:58;5.10;;;2.53;;
31694;SDS011;18289;51.330;4.946;2022-10-16T14:25:27;5.70;;;1.83;;
31694;SDS011;18289;51.330;4.946;2022-10-16T14:28:02;4.23;;;1.83;;
31694;SDS011;18289;51.330;4.946;2022-10-16T14:30:48;3.85;;;1.90;;
31694;SDS011;18289;51.330;4.946;2022-10-16T14:33:30;4.38;;;1.58;;
31694;SDS011;18289;51.330;4.946;2022-10-16T14:38:35;2.58;;;2.22;;
31694;SDS011;18289;51.330;4.946;2022-10-16T14:41:03;3.25;;;1.80;;
31694;SDS011;18289;51.330;4.946;2022-10-16T14:43:33;2.53;;;1.50;;
31694;SDS011;18289;51.330;4.946;2022-10-16T14:46:02;2.90;;;1.65;;
31694;SDS011;18289;51.330;4.946;2022-10-16T14:48:30;3.38;;;2.17;;
31694;SDS011;18289;51.330;4.946;2022-10-16T14:50:56;3.08;;;1.80;;
31694;SDS011;18289;51.330;4.946;2022-10-16T14:53:22;2.80;;;1.80;;
31694;SDS011;18289;51.330;4.946;2022-10-16T14:55:48;2.15;;;1.73;;
31694;SDS011;18289;51.330;4.946;2022-10-16T14:58:20;2.13;;;1.70;;
31694;SDS011;18289;51.330;4.946;2022-10-16T15:00:48;2.80;;;1.95;;
31694;SDS011;18289;51.330;4.946;2022-10-16T15:03:14;2.00;;;1.60;;
31694;SDS011;18289;51.330;4.946;2022-10-16T15:05:40;2.10;;;1.60;;
31694;SDS011;18289;51.330;4.946;2022-10-16T15:08:05;3.55;;;2.28;;
31694;SDS011;18289;51.330;4.946;2022-10-16T15:10:32;4.20;;;2.10;;
31694;SDS011;18289;51.330;4.946;2022-10-16T15:13:02;2.53;;;1.80;;
31694;SDS011;18289;51.330;4.946;2022-10-16T15:15:38;3.00;;;1.55;;
31694;SDS011;18289;51.330;4.946;2022-10-16T15:18:09;3.00;;;1.73;;
31694;SDS011;18289;51.330;4.946;2022-10-16T15:20:36;3.28;;;1.67;;
31694;SDS011;18289;51.330;4.946;2022-10-16T15:23:04;2.28;;;1.67;;
31694;SDS011;18289;51.330;4.946;2022-10-16T15:25:39;4.47;;;2.13;;
31694;SDS011;18289;51.330;4.946;2022-10-16T15:28:11;2.90;;;1.60;;
31694;SDS011;18289;51.330;4.946;2022-10-16T15:30:38;4.30;;;1.60;;
31694;SDS011;18289;51.330;4.946;2022-10-16T15:33:04;5.22;;;1.60;;
31694;SDS011;18289;51.330;4.946;2022-10-16T15:35:35;5.88;;;2.05;;
31694;SDS011;18289;51.330;4.946;2022-10-16T15:38:00;5.25;;;1.83;;
31694;SDS011;18289;51.330;4.946;2022-10-16T15:40:26;4.25;;;1.98;;
31694;SDS011;18289;51.330;4.946;2022-10-16T15:42:52;2.28;;;1.88;;
31694;SDS011;18289;51.330;4.946;2022-10-16T15:45:17;3.75;;;1.58;;
31694;SDS011;18289;51.330;4.946;2022-10-16T15:47:44;3.47;;;2.15;;
31694;SDS011;18289;51.330;4.946;2022-10-16T15:50:11;1.73;;;1.50;;
31694;SDS011;18289;51.330;4.946;2022-10-16T15:52:38;3.58;;;1.70;;
31694;SDS011;18289;51.330;4.946;2022-10-16T15:55:08;2.63;;;2.00;;
31694;SDS011;18289;51.330;4.946;2022-10-16T15:57:36;2.80;;;2.00;;
31694;SDS011;18289;51.330;4.946;2022-10-16T16:00:07;5.18;;;2.08;;
31694;SDS011;18289;51.330;4.946;2022-10-16T16:02:35;1.88;;;1.73;;
31694;SDS011;18289;51.330;4.946;2022-10-16T16:05:00;2.78;;;2.00;;
31694;SDS011;18289;51.330;4.946;2022-10-16T16:07:26;3.67;;;2.00;;
31694;SDS011;18289;51.330;4.946;2022-10-16T16:09:52;7.45;;;2.80;;
31694;SDS011;18289;51.330;4.946;2022-10-16T16:12:18;7.43;;;2.90;;
31694;SDS011;18289;51.330;4.946;2022-10-16T16:14:44;5.32;;;2.90;;
31694;SDS011;18289;51.330;4.946;2022-10-16T16:17:11;5.22;;;3.10;;
31694;SDS011;18289;51.330;4.946;2022-10-16T16:19:36;9.13;;;3.58;;
31694;SDS011;18289;51.330;4.946;2022-10-16T16:22:02;6.75;;;3.30;;
31694;SDS011;18289;51.330;4.946;2022-10-16T16:24:28;5.53;;;3.10;;
31694;SDS011;18289;51.330;4.946;2022-10-16T16:26:54;5.20;;;3.20;;
31694;SDS011;18289;51.330;4.946;2022-10-16T16:29:19;4.47;;;3.50;;
31694;SDS011;18289;51.330;4.946;2022-10-16T16:31:45;7.57;;;3.67;;
31694;SDS011;18289;51.330;4.946;2022-10-16T16:34:12;6.97;;;4.40;;
31694;SDS011;18289;51.330;4.946;2022-10-16T16:36:38;5.35;;;3.90;;
31694;SDS011;18289;51.330;4.946;2022-10-16T16:39:11;6.43;;;3.70;;
31694;SDS011;18289;51.330;4.946;2022-10-16T16:41:36;9.93;;;4.40;;
31694;SDS011;18289;51.330;4.946;2022-10-16T16:44:03;10.85;;;4.40;;
31694;SDS011;18289;51.330;4.946;2022-10-16T16:46:30;7.28;;;3.95;;
31694;SDS011;18289;51.330;4.946;2022-10-16T16:48:58;7.10;;;4.20;;
31694;SDS011;18289;51.330;4.946;2022-10-16T16:51:24;5.53;;;3.80;;
31694;SDS011;18289;51.330;4.946;2022-10-16T16:56:22;4.95;;;3.50;;
31694;SDS011;18289;51.330;4.946;2022-10-16T16:58:49;11.18;;;4.10;;
31694;SDS011;18289;51.330;4.946;2022-10-16T17:01:16;5.25;;;3.78;;
31694;SDS011;18289;51.330;4.946;2022-10-16T17:03:43;5.38;;;3.70;;
31694;SDS011;18289;51.330;4.946;2022-10-16T17:06:10;7.97;;;4.38;;
31694;SDS011;18289;51.330;4.946;2022-10-16T17:08:37;7.30;;;4.25;;